Hendersonville, North Carolina
Current Conditions -  °F | °C
As of 12:54 PM on Sunday 21 Dec 2014 (Local Time) from KAVL Reporting Station
Broken Clouds Broken Clouds  
Wind Chill: 46°   Ceiling: 2200
Heat Index: 46°   Visibility: 10mi
Dew Point: 37°   Wind: 0mph
Humidity: 71%   Direction: NA
Pressure: 30.16"   Gusts: NA
Location:  35.32°N, 82.46°W
Report Text: KAVL 211754Z 00000KT 10SM SCT017 BKN022 BKN028 08/03 A3016 RMK AO2 SLP215 T00780028 10083 20039 58021
Loading
Personal Weather Stations






























Interactive Weather Map New forecast layout! Learn more

10-Day Weather Forecast

Advertisements
Track Severe Weather on mobile